Forside
METAR-TAF:

METAR-TAF

Lufthavne :

Colorado City, Arizona, USA

Breddekreds: 36-57-36N, længdekreds: 113-00-50W, højde: 1486 m

Aktuelle vejr

Denne rapport blev lavet for 11 minutter siden, kl. 07:35 UTC
Vind 4 kt fra øst
Temperatur 10°C
Fugtighed 29%
Tryk 1022 hPa
Sigt: 16.1 km
Overskyet i en højde af 11000 ft

METAR: KAZC 220735Z AUTO 09004KT 10SM OVC110 10/M07 A3018 RMK AO2

Tid: 00:46 (07:46 UTC)


TAF: fraværende

Vejrobservationer og prognoser fra mere end 4000 lufthavne (METAR og TAF).

De gule og røde prikker repræsenterer de meteorologiske stationer.

Flyt musen over at se navnet på stationen.

Så klik over at se vejr observationer og prognoser.

At skifte det kort: Klik på de grønne knapper med et sort kors for at zoome ind; på den grønne knap med en bindestreg for at zoome ud; eller på de grønne pile for tilstødende kort.


METAR-TAF: